Time;durP1;ratioP1;P1;durP2;ratioP2;P2;SDS_P1;SDS_P2;PMS_P1;PMS_P2;Temp;Humidity;BMP_temperature;BMP_pressure;BME280_temperature;BME280_humidity;BME280_pressure;Samples;Min_cycle;Max_cycle;Signal;HPM_P1;HPM_P2
2021/06/18 00:00:58;;;;;;;19.92;15.90;;;;;;;;;;1436184;41;20505;-81
2021/06/18 00:02:00;;;;;;;19.60;15.18;;;;;;;;;;1431619;41;20433;-86
2021/06/18 00:03:03;;;;;;;19.10;16.27;;;;;;;;;;1432308;41;20718;-85
2021/06/18 00:04:05;;;;;;;18.75;15.40;;;;;;;;;;1434450;41;20441;-84
2021/06/18 00:05:08;;;;;;;17.30;15.20;;;;;;;;;;1439058;41;20505;-84
2021/06/18 00:06:10;;;;;;;18.90;15.88;;;;;;;;;;1437939;41;20421;-83
2021/06/18 00:07:11;;;;;;;17.08;15.27;;;;;;;;;;1434318;41;20523;-83
2021/06/18 00:08:13;;;;;;;19.38;16.48;;;;;;;;;;1434761;41;21303;-84
2021/06/18 00:09:15;;;;;;;19.25;17.10;;;;;;;;;;1439095;41;20405;-85
2021/06/18 00:10:20;;;;;;;18.10;16.00;;;;;;;;;;1439998;41;20727;-85
2021/06/18 00:11:23;;;;;;;18.30;16.48;;;;;;;;;;1441613;41;20420;-85
2021/06/18 00:12:26;;;;;;;18.08;16.02;;;;;;;;;;1445471;41;20470;-85
2021/06/18 00:13:28;;;;;;;21.00;16.30;;;;;;;;;;1444914;41;20704;-84
2021/06/18 00:14:30;;;;;;;19.20;16.13;;;;;;;;;;1434552;41;20435;-83
2021/06/18 00:15:34;;;;;;;20.15;16.80;;;;;;;;;;1436238;41;20440;-84
2021/06/18 00:16:37;;;;;;;19.90;16.42;;;;;;;;;;1438108;41;20427;-83
2021/06/18 00:17:39;;;;;;;19.83;17.83;;;;;;;;;;1438268;41;20842;-84
2021/06/18 00:18:42;;;;;;;19.25;17.10;;;;;;;;;;1438185;41;20424;-85
2021/06/18 00:19:46;;;;;;;22.25;18.02;;;;;;;;;;1438996;41;20422;-85
2021/06/18 00:20:47;;;;;;;23.63;18.55;;;;;;;;;;1438643;41;20442;-85
2021/06/18 00:21:50;;;;;;;21.27;18.80;;;;;;;;;;1434122;41;21118;-85
2021/06/18 00:22:53;;;;;;;21.13;18.60;;;;;;;;;;1437629;41;20457;-85
2021/06/18 00:23:54;;;;;;;20.92;17.17;;;;;;;;;;1437512;41;20423;-85
2021/06/18 00:24:57;;;;;;;22.95;18.27;;;;;;;;;;1434258;41;20519;-84
2021/06/18 00:25:59;;;;;;;25.43;19.57;;;;;;;;;;1433825;41;20452;-86
2021/06/18 00:27:02;;;;;;;23.60;19.83;;;;;;;;;;1431035;41;20434;-84
2021/06/18 00:28:04;;;;;;;21.35;19.15;;;;;;;;;;1428220;41;20696;-86
2021/06/18 00:29:07;;;;;;;27.38;20.55;;;;;;;;;;1434222;41;20815;-85
2021/06/18 00:30:10;;;;;;;25.20;21.65;;;;;;;;;;1434553;41;20541;-85
2021/06/18 00:31:13;;;;;;;24.63;21.38;;;;;;;;;;1445898;41;20786;-86
2021/06/18 00:32:16;;;;;;;26.23;21.40;;;;;;;;;;1437913;41;20430;-86
2021/06/18 00:33:18;;;;;;;26.02;22.00;;;;;;;;;;1435713;41;20440;-86
2021/06/18 00:34:20;;;;;;;26.58;22.73;;;;;;;;;;1439967;41;20419;-85
2021/06/18 00:35:22;;;;;;;24.92;22.23;;;;;;;;;;1440867;41;20439;-85
2021/06/18 00:36:24;;;;;;;24.88;21.27;;;;;;;;;;1436143;41;20437;-84
2021/06/18 00:37:25;;;;;;;26.17;22.50;;;;;;;;;;1439047;41;20441;-87
2021/06/18 00:38:29;;;;;;;25.17;22.42;;;;;;;;;;1436074;41;21027;-85
2021/06/18 00:39:31;;;;;;;28.70;23.65;;;;;;;;;;1442422;41;20430;-84
2021/06/18 00:40:35;;;;;;;27.58;23.40;;;;;;;;;;1439173;41;20416;-84
2021/06/18 00:41:36;;;;;;;29.08;23.75;;;;;;;;;;1437670;41;20416;-83
2021/06/18 00:42:44;;;;;;;29.37;23.90;;;;;;;;;;1441990;41;20439;-83
2021/06/18 00:43:45;;;;;;;32.88;26.30;;;;;;;;;;1444466;41;20416;-82
2021/06/18 00:44:47;;;;;;;29.10;24.63;;;;;;;;;;1447137;41;20453;-83
2021/06/18 00:45:49;;;;;;;33.72;25.52;;;;;;;;;;1442864;41;20421;-82
2021/06/18 00:46:50;;;;;;;31.92;24.80;;;;;;;;;;1440816;41;20422;-83
2021/06/18 00:47:59;;;;;;;33.53;26.33;;;;;;;;;;1440648;41;20435;-82
2021/06/18 00:49:01;;;;;;;30.58;25.80;;;;;;;;;;1437210;41;20756;-81
2021/06/18 00:50:03;;;;;;;36.45;26.98;;;;;;;;;;1435533;41;20787;-83
2021/06/18 00:51:05;;;;;;;35.58;26.90;;;;;;;;;;1433536;41;20460;-82
2021/06/18 00:52:07;;;;;;;36.40;26.58;;;;;;;;;;1433804;41;20429;-84
2021/06/18 00:53:10;;;;;;;32.80;26.13;;;;;;;;;;1434242;41;20443;-82
2021/06/18 00:54:13;;;;;;;34.42;27.65;;;;;;;;;;1435605;41;20450;-83
2021/06/18 00:55:15;;;;;;;35.13;27.45;;;;;;;;;;1433216;41;20987;-83
2021/06/18 00:56:16;;;;;;;35.72;28.55;;;;;;;;;;1437300;41;20442;-82
2021/06/18 00:57:18;;;;;;;37.35;29.42;;;;;;;;;;1441327;41;20429;-83
2021/06/18 00:58:20;;;;;;;34.72;27.60;;;;;;;;;;1441564;41;20513;-84
2021/06/18 00:59:23;;;;;;;35.35;27.95;;;;;;;;;;1441185;41;20550;-82
2021/06/18 01:00:25;;;;;;;36.70;28.92;;;;;;;;;;1441569;41;20433;-84
2021/06/18 01:01:29;;;;;;;38.05;30.08;;;;;;;;;;1441131;41;20428;-83
2021/06/18 01:02:31;;;;;;;36.22;29.77;;;;;;;;;;1437373;41;20442;-81
2021/06/18 01:03:33;;;;;;;39.72;30.50;;;;;;;;;;1432190;41;20441;-82
2021/06/18 01:04:36;;;;;;;39.63;30.60;;;;;;;;;;1435385;41;20451;-82
2021/06/18 01:05:39;;;;;;;38.00;29.40;;;;;;;;;;1436576;41;20479;-82
2021/06/18 01:06:46;;;;;;;39.28;30.40;;;;;;;;;;1438178;41;20419;-84
2021/06/18 01:07:57;;;;;;;40.60;30.77;;;;;;;;;;1437054;41;20447;-83
2021/06/18 01:09:07;;;;;;;43.05;31.85;;;;;;;;;;1437598;41;20422;-82
2021/06/18 01:10:34;;;;;;;47.00;31.98;;;;;;;;;;1439761;41;20432;-82
2021/06/18 01:12:05;;;;;;;43.38;33.83;;;;;;;;;;1436377;41;20415;-82
2021/06/18 01:13:35;;;;;;;41.75;31.80;;;;;;;;;;1440847;41;20431;-83
2021/06/18 01:14:58;;;;;;;43.72;32.05;;;;;;;;;;1437085;41;20490;-82
2021/06/18 01:16:15;;;;;;;42.30;32.65;;;;;;;;;;1438336;41;20812;-83
2021/06/18 01:17:24;;;;;;;43.75;33.67;;;;;;;;;;1436968;41;20416;-83
2021/06/18 01:18:35;;;;;;;46.80;33.97;;;;;;;;;;1436917;41;20435;-83
2021/06/18 01:19:58;;;;;;;46.40;34.20;;;;;;;;;;1435758;41;21173;-83
2021/06/18 01:21:14;;;;;;;46.40;34.85;;;;;;;;;;1436905;41;20831;-84
2021/06/18 01:22:19;;;;;;;48.40;35.50;;;;;;;;;;1440972;41;21270;-82
2021/06/18 01:23:42;;;;;;;48.85;35.67;;;;;;;;;;1441116;41;20433;-83
2021/06/18 01:25:15;;;;;;;52.78;37.72;;;;;;;;;;1436280;41;21259;-82
2021/06/18 01:26:20;;;;;;;49.67;37.55;;;;;;;;;;1438293;41;20497;-82
2021/06/18 01:27:32;;;;;;;50.28;37.10;;;;;;;;;;1437049;41;20823;-81
2021/06/18 01:28:46;;;;;;;50.88;36.97;;;;;;;;;;1438014;41;20440;-81
2021/06/18 01:29:53;;;;;;;54.05;38.40;;;;;;;;;;1431059;41;20429;-82
2021/06/18 01:30:57;;;;;;;53.28;38.47;;;;;;;;;;1434042;41;20447;-83
2021/06/18 01:32:03;;;;;;;55.42;39.53;;;;;;;;;;1437524;41;20422;-82
2021/06/18 01:33:08;;;;;;;54.05;39.42;;;;;;;;;;1437523;41;20455;-80
2021/06/18 01:34:17;;;;;;;51.08;38.40;;;;;;;;;;1436511;41;20516;-83
2021/06/18 01:35:21;;;;;;;56.70;40.80;;;;;;;;;;1434030;41;21120;-83
2021/06/18 01:36:27;;;;;;;51.42;39.90;;;;;;;;;;1432743;41;20433;-83
2021/06/18 01:37:31;;;;;;;57.72;41.47;;;;;;;;;;1437835;41;20415;-83
2021/06/18 01:38:39;;;;;;;57.53;43.50;;;;;;;;;;1441613;41;20437;-83
2021/06/18 01:39:43;;;;;;;56.97;42.08;;;;;;;;;;1441741;41;20433;-80
2021/06/18 01:40:49;;;;;;;53.97;41.33;;;;;;;;;;1441845;41;20433;-83
2021/06/18 01:41:53;;;;;;;55.58;42.15;;;;;;;;;;1437101;41;20428;-82
2021/06/18 01:42:58;;;;;;;60.08;43.85;;;;;;;;;;1433570;41;20420;-81
2021/06/18 01:44:01;;;;;;;57.55;42.85;;;;;;;;;;1433588;41;20550;-81
2021/06/18 01:45:04;;;;;;;59.35;44.75;;;;;;;;;;1437293;41;20434;-82
2021/06/18 01:46:10;;;;;;;58.78;42.65;;;;;;;;;;1437004;41;20419;-81
2021/06/18 01:47:14;;;;;;;51.47;41.92;;;;;;;;;;1433618;41;20417;-83
2021/06/18 01:48:18;;;;;;;57.83;43.13;;;;;;;;;;1436922;41;20439;-84
2021/06/18 01:49:21;;;;;;;55.47;42.92;;;;;;;;;;1433369;41;20467;-83
2021/06/18 01:50:25;;;;;;;57.20;43.55;;;;;;;;;;1435097;41;20436;-84
2021/06/18 01:51:29;;;;;;;58.35;43.38;;;;;;;;;;1433364;41;20460;-82
2021/06/18 01:52:31;;;;;;;58.72;44.55;;;;;;;;;;1436300;41;20431;-83
2021/06/18 01:53:35;;;;;;;59.25;44.95;;;;;;;;;;1434290;41;20444;-81
2021/06/18 01:54:39;;;;;;;57.30;43.70;;;;;;;;;;1441374;41;20406;-82
2021/06/18 01:55:43;;;;;;;54.33;42.07;;;;;;;;;;1439216;41;20539;-84
2021/06/18 01:56:47;;;;;;;55.47;44.55;;;;;;;;;;1441154;41;20833;-81
2021/06/18 01:57:52;;;;;;;58.60;44.03;;;;;;;;;;1433412;41;20464;-82
2021/06/18 01:59:00;;;;;;;55.77;43.70;;;;;;;;;;1430552;41;20415;-81
2021/06/18 02:00:05;;;;;;;60.20;42.97;;;;;;;;;;1439160;41;20847;-83
2021/06/18 02:01:08;;;;;;;59.63;46.53;;;;;;;;;;1441646;41;20410;-80
2021/06/18 02:02:11;;;;;;;59.45;45.22;;;;;;;;;;1441679;41;20665;-80
2021/06/18 02:03:24;;;;;;;65.15;45.63;;;;;;;;;;1437315;41;20890;-83
2021/06/18 02:04:26;;;;;;;73.50;47.67;;;;;;;;;;1437678;41;20440;-84
2021/06/18 02:05:31;;;;;;;73.80;48.88;;;;;;;;;;1442894;41;20420;-83
2021/06/18 02:06:37;;;;;;;78.00;51.20;;;;;;;;;;1438136;41;20848;-82
2021/06/18 02:07:41;;;;;;;73.85;52.00;;;;;;;;;;1437810;41;20423;-81
2021/06/18 02:08:44;;;;;;;74.63;54.35;;;;;;;;;;1441641;41;20428;-81
2021/06/18 02:09:49;;;;;;;76.40;53.28;;;;;;;;;;1441668;41;20883;-81
2021/06/18 02:10:52;;;;;;;81.80;56.38;;;;;;;;;;1437050;41;20853;-81
2021/06/18 02:11:54;;;;;;;92.25;58.33;;;;;;;;;;1429134;41;20426;-81
2021/06/18 02:12:57;;;;;;;101.55;61.42;;;;;;;;;;1433062;41;20421;-81
2021/06/18 02:14:01;;;;;;;106.47;64.35;;;;;;;;;;1435685;41;20677;-84
2021/06/18 02:15:06;;;;;;;101.90;64.05;;;;;;;;;;1434935;41;20868;-82
2021/06/18 02:16:08;;;;;;;114.13;65.97;;;;;;;;;;1438407;41;20434;-81
2021/06/18 02:17:11;;;;;;;123.45;65.25;;;;;;;;;;1442065;41;20485;-82
2021/06/18 02:18:17;;;;;;;109.30;65.65;;;;;;;;;;1437625;41;20538;-83
2021/06/18 02:19:20;;;;;;;109.32;64.55;;;;;;;;;;1437670;41;20419;-83
2021/06/18 02:20:24;;;;;;;104.50;63.33;;;;;;;;;;1434030;41;20437;-84
2021/06/18 02:21:28;;;;;;;109.95;63.95;;;;;;;;;;1434937;41;20445;-84
2021/06/18 02:22:30;;;;;;;96.78;61.70;;;;;;;;;;1434468;41;20427;-85
2021/06/18 02:23:33;;;;;;;101.03;62.55;;;;;;;;;;1435652;41;20421;-85
2021/06/18 02:24:36;;;;;;;104.15;61.63;;;;;;;;;;1435811;41;20684;-85
2021/06/18 02:25:40;;;;;;;97.25;61.13;;;;;;;;;;1442779;41;20447;-85
2021/06/18 02:26:42;;;;;;;100.68;60.42;;;;;;;;;;1442554;41;20411;-83
2021/06/18 02:27:45;;;;;;;109.03;62.45;;;;;;;;;;1446328;41;20432;-83
2021/06/18 02:28:48;;;;;;;126.13;63.55;;;;;;;;;;1446539;41;20424;-84
2021/06/18 02:29:49;;;;;;;112.80;63.92;;;;;;;;;;1443537;41;20426;-83
2021/06/18 02:30:52;;;;;;;101.00;61.53;;;;;;;;;;1444047;41;20426;-84
2021/06/18 02:31:58;;;;;;;108.03;64.75;;;;;;;;;;1444391;41;20430;-83
2021/06/18 02:33:10;;;;;;;116.35;66.60;;;;;;;;;;1452100;40;20416;-84
2021/06/18 02:34:12;;;;;;;124.63;68.20;;;;;;;;;;1444236;41;20402;-84
2021/06/18 02:35:14;;;;;;;107.82;65.28;;;;;;;;;;1447380;41;20422;-84
2021/06/18 02:36:17;;;;;;;118.10;66.00;;;;;;;;;;1445398;41;20414;-84
2021/06/18 02:37:19;;;;;;;110.72;63.80;;;;;;;;;;1441352;41;20511;-82
2021/06/18 02:38:23;;;;;;;121.43;67.32;;;;;;;;;;1440195;41;20446;-83
2021/06/18 02:39:24;;;;;;;117.10;64.90;;;;;;;;;;1438877;41;20567;-83
2021/06/18 02:40:29;;;;;;;126.82;67.32;;;;;;;;;;1435031;41;20425;-83
2021/06/18 02:41:31;;;;;;;116.93;65.35;;;;;;;;;;1431240;41;20423;-83
2021/06/18 02:42:33;;;;;;;125.18;67.88;;;;;;;;;;1435464;41;20443;-85
2021/06/18 02:43:38;;;;;;;75.07;43.00;;;;;;;;;;1441714;41;20445;-85
2021/06/18 02:44:39;;;;;;;112.13;63.38;;;;;;;;;;1440764;41;20411;-84
2021/06/18 02:45:41;;;;;;;119.40;63.15;;;;;;;;;;1436999;41;20445;-83
2021/06/18 02:46:58;;;;;;;134.13;66.57;;;;;;;;;;1433627;41;20427;-84
2021/06/18 02:48:12;;;;;;;137.55;68.50;;;;;;;;;;1438266;41;20440;-84
2021/06/18 02:49:15;;;;;;;147.32;69.53;;;;;;;;;;1437843;41;20419;-85
2021/06/18 02:50:46;;;;;;;136.30;69.97;;;;;;;;;;1442834;41;20467;-84
2021/06/18 02:51:57;;;;;;;133.18;71.18;;;;;;;;;;1444983;41;20421;-84
2021/06/18 02:53:06;;;;;;;139.60;70.90;;;;;;;;;;1442877;41;20432;-83
2021/06/18 02:54:26;;;;;;;133.60;70.63;;;;;;;;;;1445716;41;20396;-84
2021/06/18 02:55:41;;;;;;;140.73;70.40;;;;;;;;;;1443539;41;20429;-85
2021/06/18 02:57:09;;;;;;;119.82;67.07;;;;;;;;;;1441368;41;20409;-85
2021/06/18 02:58:19;;;;;;;114.57;66.38;;;;;;;;;;1436829;41;21290;-85
2021/06/18 02:59:36;;;;;;;120.75;66.80;;;;;;;;;;1439067;41;20424;-85
2021/06/18 03:00:41;;;;;;;127.50;69.50;;;;;;;;;;1441926;41;20440;-84
2021/06/18 03:01:45;;;;;;;116.07;65.63;;;;;;;;;;1437858;41;20435;-83
2021/06/18 03:02:52;;;;;;;117.93;65.78;;;;;;;;;;1438877;41;20518;-84
2021/06/18 03:03:56;;;;;;;143.93;69.75;;;;;;;;;;1442653;41;20904;-84
2021/06/18 03:05:01;;;;;;;121.55;66.65;;;;;;;;;;1438425;41;20427;-83
2021/06/18 03:06:04;;;;;;;112.18;64.75;;;;;;;;;;1439711;41;20431;-84
2021/06/18 03:07:08;;;;;;;103.85;63.70;;;;;;;;;;1444999;41;20445;-86
2021/06/18 03:08:12;;;;;;;119.47;67.53;;;;;;;;;;1446100;41;20618;-84
2021/06/18 03:09:16;;;;;;;131.77;66.75;;;;;;;;;;1433808;41;20438;-84
2021/06/18 03:10:20;;;;;;;129.02;66.30;;;;;;;;;;1434419;41;20417;-82
2021/06/18 03:11:31;;;;;;;122.50;65.90;;;;;;;;;;1434553;41;20432;-83
2021/06/18 03:12:38;;;;;;;109.60;63.40;;;;;;;;;;1435732;41;20417;-86
2021/06/18 03:13:43;;;;;;;107.43;63.10;;;;;;;;;;1439169;41;20419;-84
2021/06/18 03:14:46;;;;;;;104.88;61.72;;;;;;;;;;1438803;41;20412;-85
2021/06/18 03:15:49;;;;;;;125.80;66.07;;;;;;;;;;1444502;41;20418;-84
2021/06/18 03:16:58;;;;;;;145.88;69.60;;;;;;;;;;1442838;41;20426;-83
2021/06/18 03:18:01;;;;;;;137.52;70.22;;;;;;;;;;1438992;41;20426;-84
2021/06/18 03:19:06;;;;;;;131.45;66.60;;;;;;;;;;1437735;41;20497;-83
2021/06/18 03:20:15;;;;;;;133.13;70.53;;;;;;;;;;1436889;41;20473;-86
2021/06/18 03:21:18;;;;;;;140.93;68.25;;;;;;;;;;1437999;41;20528;-84
2021/06/18 03:22:22;;;;;;;144.20;69.65;;;;;;;;;;1441645;41;20422;-84
2021/06/18 03:23:25;;;;;;;140.98;71.25;;;;;;;;;;1439733;41;20431;-84
2021/06/18 03:24:29;;;;;;;145.30;70.00;;;;;;;;;;1443162;41;20426;-87
2021/06/18 03:25:34;;;;;;;153.52;71.57;;;;;;;;;;1443849;41;20427;-85
2021/06/18 03:26:37;;;;;;;144.93;68.05;;;;;;;;;;1437930;41;20428;-83
2021/06/18 03:27:41;;;;;;;131.38;67.43;;;;;;;;;;1433774;41;20430;-83
2021/06/18 03:28:43;;;;;;;150.52;69.45;;;;;;;;;;1441965;41;20443;-85
2021/06/18 03:29:49;;;;;;;136.15;67.55;;;;;;;;;;1438758;41;20448;-83
2021/06/18 03:30:52;;;;;;;136.60;68.05;;;;;;;;;;1444327;41;20650;-82
2021/06/18 03:32:00;;;;;;;131.93;68.85;;;;;;;;;;1447574;41;20427;-85
2021/06/18 03:33:04;;;;;;;133.30;67.95;;;;;;;;;;1448364;41;20432;-82
2021/06/18 03:34:06;;;;;;;133.65;69.63;;;;;;;;;;1447408;41;20426;-84
2021/06/18 03:35:11;;;;;;;128.98;67.25;;;;;;;;;;1446133;41;20437;-82
2021/06/18 03:36:20;;;;;;;143.85;70.57;;;;;;;;;;1435896;41;20513;-82
2021/06/18 03:37:23;;;;;;;128.13;66.45;;;;;;;;;;1433917;41;20427;-82
2021/06/18 03:38:25;;;;;;;122.95;66.75;;;;;;;;;;1438467;41;20423;-83
2021/06/18 03:39:28;;;;;;;135.55;66.70;;;;;;;;;;1437928;41;20411;-84
2021/06/18 03:40:31;;;;;;;125.13;67.20;;;;;;;;;;1434598;41;20409;-84
2021/06/18 03:41:33;;;;;;;130.05;66.47;;;;;;;;;;1437097;41;20449;-85
2021/06/18 03:42:36;;;;;;;138.93;68.82;;;;;;;;;;1434091;41;20481;-84
2021/06/18 03:43:37;;;;;;;127.67;65.73;;;;;;;;;;1434151;41;20405;-84
2021/06/18 03:44:40;;;;;;;115.55;64.65;;;;;;;;;;1433897;41;20412;-86
2021/06/18 03:45:46;;;;;;;119.20;64.75;;;;;;;;;;1442081;41;20489;-84
2021/06/18 03:46:51;;;;;;;139.07;67.37;;;;;;;;;;1437481;41;20424;-85
2021/06/18 03:47:53;;;;;;;128.35;66.57;;;;;;;;;;1437325;41;20482;-84
2021/06/18 03:48:57;;;;;;;121.97;64.72;;;;;;;;;;1440702;41;20435;-84
2021/06/18 03:50:01;;;;;;;105.72;62.17;;;;;;;;;;1437154;41;20805;-84
2021/06/18 03:51:06;;;;;;;118.38;64.35;;;;;;;;;;1437748;41;20408;-84
2021/06/18 03:52:09;;;;;;;120.65;63.97;;;;;;;;;;1441553;41;20425;-84
2021/06/18 03:53:14;;;;;;;109.28;63.17;;;;;;;;;;1437672;41;20423;-84
2021/06/18 03:54:16;;;;;;;103.85;62.35;;;;;;;;;;1433596;41;20405;-84
2021/06/18 03:55:18;;;;;;;75.40;43.95;;;;;;;;;;1433236;41;20424;-86
2021/06/18 03:56:21;;;;;;;0.40;0.40;;;;;;;;;;1430426;41;20442;-85
2021/06/18 03:57:24;;;;;;;1.70;1.60;;;;;;;;;;1437793;41;20444;-86
2021/06/18 03:58:26;;;;;;;0.40;0.40;;;;;;;;;;1437615;41;20431;-87
2021/06/18 03:59:29;;;;;;;1.80;0.90;;;;;;;;;;1433398;41;20546;-85
2021/06/18 04:00:36;;;;;;;1.20;1.20;;;;;;;;;;1433599;41;20464;-85
2021/06/18 04:01:39;;;;;;;1.70;1.60;;;;;;;;;;1436710;41;20851;-86
2021/06/18 04:02:42;;;;;;;1.08;0.57;;;;;;;;;;1434187;41;20520;-85
2021/06/18 04:03:49;;;;;;;0.57;0.57;;;;;;;;;;1433111;41;20669;-85
2021/06/18 04:04:52;;;;;;;0.88;0.88;;;;;;;;;;1435802;41;20601;-85
2021/06/18 04:06:03;;;;;;;1.33;1.23;;;;;;;;;;1438312;41;20467;-87
2021/06/18 04:07:10;;;;;;;2.65;1.75;;;;;;;;;;1439360;41;20811;-85
2021/06/18 04:08:13;;;;;;;0.47;0.47;;;;;;;;;;1437446;41;20545;-87
2021/06/18 04:09:16;;;;;;;1.20;1.20;;;;;;;;;;1433743;41;21164;-85
2021/06/18 04:10:20;;;;;;;1.60;1.50;;;;;;;;;;1434092;41;20542;-87
2021/06/18 04:11:22;;;;;;;1.08;1.08;;;;;;;;;;1440863;41;20498;-89
2021/06/18 04:12:24;;;;;;;0.90;0.90;;;;;;;;;;1434177;41;20452;-84
2021/06/18 04:13:27;;;;;;;2.10;1.00;;;;;;;;;;1434005;41;20417;-82
2021/06/18 04:14:29;;;;;;;0.50;0.50;;;;;;;;;;1429701;41;20928;-86
2021/06/18 04:15:31;;;;;;;1.02;0.98;;;;;;;;;;1430542;41;20433;-85
2021/06/18 04:16:33;;;;;;;2.90;2.20;;;;;;;;;;1430669;41;20916;-83
2021/06/18 04:17:36;;;;;;;2.08;1.67;;;;;;;;;;1434326;41;21151;-83
2021/06/18 04:18:44;;;;;;;0.47;0.47;;;;;;;;;;1434970;41;20436;-85
2021/06/18 04:19:45;;;;;;;0.40;0.40;;;;;;;;;;1437519;41;20431;-84
2021/06/18 04:20:50;;;;;;;1.00;1.00;;;;;;;;;;1444478;41;20429;-84
2021/06/18 04:21:52;;;;;;;7.60;1.92;;;;;;;;;;1442705;41;20999;-84
2021/06/18 04:22:55;;;;;;;0.70;0.70;;;;;;;;;;1433435;41;21256;-85
2021/06/18 04:23:57;;;;;;;0.73;0.73;;;;;;;;;;1429971;41;20729;-86
2021/06/18 04:25:01;;;;;;;0.73;0.73;;;;;;;;;;1433978;41;20441;-85
2021/06/18 04:26:03;;;;;;;1.35;1.25;;;;;;;;;;1438421;41;20419;-84
2021/06/18 04:27:05;;;;;;;0.55;0.55;;;;;;;;;;1437845;41;20446;-83
2021/06/18 04:28:09;;;;;;;0.47;0.47;;;;;;;;;;1437509;41;20435;-85
2021/06/18 04:29:13;;;;;;;0.63;0.63;;;;;;;;;;1438444;41;20512;-83
2021/06/18 04:30:17;;;;;;;1.45;1.23;;;;;;;;;;1439312;41;20399;-83
2021/06/18 04:31:19;;;;;;;0.50;0.50;;;;;;;;;;1440939;41;20579;-85
2021/06/18 04:32:21;;;;;;;1.08;1.00;;;;;;;;;;1439045;41;20506;-85
2021/06/18 04:33:23;;;;;;;0.60;0.60;;;;;;;;;;1434282;41;20696;-84
2021/06/18 04:34:25;;;;;;;1.20;1.10;;;;;;;;;;1438060;41;20536;-83
2021/06/18 04:35:28;;;;;;;1.30;0.90;;;;;;;;;;1435310;41;20632;-83
2021/06/18 04:36:32;;;;;;;0.60;0.60;;;;;;;;;;1431503;41;20494;-83
2021/06/18 04:37:35;;;;;;;0.45;0.45;;;;;;;;;;1433801;41;20477;-84
2021/06/18 04:38:39;;;;;;;0.75;0.50;;;;;;;;;;1433690;41;20552;-84
2021/06/18 04:39:40;;;;;;;0.50;0.50;;;;;;;;;;1429591;41;20471;-85
2021/06/18 04:40:42;;;;;;;0.40;0.40;;;;;;;;;;1433854;41;20782;-82
2021/06/18 04:41:45;;;;;;;2.00;1.02;;;;;;;;;;1434568;41;20428;-83
2021/06/18 04:42:47;;;;;;;0.68;0.68;;;;;;;;;;1433747;41;20712;-85
2021/06/18 04:43:48;;;;;;;0.52;0.52;;;;;;;;;;1433577;41;20798;-85
2021/06/18 04:44:50;;;;;;;0.70;0.70;;;;;;;;;;1437466;41;20517;-83
2021/06/18 04:45:52;;;;;;;0.32;0.32;;;;;;;;;;1440897;41;20417;-85
2021/06/18 04:46:54;;;;;;;1.02;1.02;;;;;;;;;;1438504;41;20443;-84
2021/06/18 04:47:58;;;;;;;0.30;0.30;;;;;;;;;;1433439;41;20409;-84
2021/06/18 04:49:03;;;;;;;1.55;1.45;;;;;;;;;;1430022;41;20486;-85
2021/06/18 04:50:06;;;;;;;0.10;0.10;;;;;;;;;;1432739;41;20549;-85
2021/06/18 04:51:08;;;;;;;0.90;0.75;;;;;;;;;;1437286;41;20419;-85
2021/06/18 04:52:11;;;;;;;1.05;1.05;;;;;;;;;;1433912;41;20421;-85
2021/06/18 04:53:14;;;;;;;3.33;1.00;;;;;;;;;;1433763;41;20835;-85
2021/06/18 04:54:15;;;;;;;0.85;0.85;;;;;;;;;;1436891;41;20431;-85
2021/06/18 04:55:18;;;;;;;0.25;0.25;;;;;;;;;;1440789;41;20421;-83
2021/06/18 04:56:20;;;;;;;0.63;0.63;;;;;;;;;;1437497;41;20909;-83
2021/06/18 04:57:22;;;;;;;1.40;0.88;;;;;;;;;;1437364;41;21205;-83
2021/06/18 04:58:28;;;;;;;0.55;0.52;;;;;;;;;;1433467;41;20835;-82
2021/06/18 04:59:33;;;;;;;0.50;0.50;;;;;;;;;;1434270;41;20498;-84
2021/06/18 05:00:35;;;;;;;0.50;0.50;;;;;;;;;;1434297;41;20440;-83
2021/06/18 05:01:37;;;;;;;0.68;0.68;;;;;;;;;;1437264;41;20410;-86
2021/06/18 05:02:39;;;;;;;0.32;0.32;;;;;;;;;;1438424;41;20433;-84
2021/06/18 05:03:41;;;;;;;3.05;1.75;;;;;;;;;;1431602;41;20450;-83
2021/06/18 05:04:42;;;;;;;0.90;0.90;;;;;;;;;;1437924;41;20427;-86
2021/06/18 05:05:44;;;;;;;0.95;0.85;;;;;;;;;;1442563;41;20459;-84
2021/06/18 05:06:47;;;;;;;0.40;0.40;;;;;;;;;;1438831;41;20428;-83
2021/06/18 05:07:52;;;;;;;0.50;0.50;;;;;;;;;;1443864;41;20422;-85
2021/06/18 05:08:55;;;;;;;1.20;0.85;;;;;;;;;;1448804;40;20437;-85
2021/06/18 05:09:56;;;;;;;1.95;1.02;;;;;;;;;;1450352;40;20451;-84
2021/06/18 05:10:59;;;;;;;0.70;0.70;;;;;;;;;;1443832;41;20430;-85
2021/06/18 05:12:01;;;;;;;0.22;0.22;;;;;;;;;;1442949;41;20465;-84
2021/06/18 05:13:03;;;;;;;0.50;0.50;;;;;;;;;;1440341;41;20512;-85
2021/06/18 05:14:07;;;;;;;0.20;0.20;;;;;;;;;;1432880;41;20492;-84
2021/06/18 05:15:11;;;;;;;2.25;0.82;;;;;;;;;;1433739;41;20416;-85
2021/06/18 05:16:14;;;;;;;1.10;1.10;;;;;;;;;;1443197;41;20427;-84
2021/06/18 05:17:16;;;;;;;0.40;0.40;;;;;;;;;;1447343;41;20476;-85
2021/06/18 05:18:18;;;;;;;1.55;1.10;;;;;;;;;;1450105;41;20410;-83
2021/06/18 05:19:19;;;;;;;0.68;0.63;;;;;;;;;;1439446;41;20432;-83
2021/06/18 05:20:23;;;;;;;0.43;0.43;;;;;;;;;;1438223;41;20478;-81
2021/06/18 05:21:25;;;;;;;0.32;0.32;;;;;;;;;;1440651;41;20918;-84
2021/06/18 05:22:27;;;;;;;0.80;0.80;;;;;;;;;;1439132;41;20445;-83
2021/06/18 05:23:28;;;;;;;0.20;0.20;;;;;;;;;;1439405;41;20424;-83
2021/06/18 05:24:30;;;;;;;1.10;0.75;;;;;;;;;;1443208;41;20499;-83
2021/06/18 05:25:32;;;;;;;0.60;0.60;;;;;;;;;;1443532;41;20415;-84
2021/06/18 05:26:36;;;;;;;0.52;0.52;;;;;;;;;;1436120;41;20474;-83
2021/06/18 05:27:39;;;;;;;0.20;0.20;;;;;;;;;;1435381;41;20419;-82
2021/06/18 05:28:41;;;;;;;0.70;0.70;;;;;;;;;;1439581;41;20429;-84
2021/06/18 05:29:42;;;;;;;0.63;0.45;;;;;;;;;;1442240;41;20427;-82
2021/06/18 05:30:44;;;;;;;0.22;0.22;;;;;;;;;;1444600;41;20439;-84
2021/06/18 05:31:47;;;;;;;0.50;0.50;;;;;;;;;;1448374;41;20679;-82
2021/06/18 05:32:49;;;;;;;0.17;0.17;;;;;;;;;;1441302;41;20430;-83
2021/06/18 05:33:51;;;;;;;0.22;0.22;;;;;;;;;;1436853;41;20430;-81
2021/06/18 05:34:53;;;;;;;0.45;0.43;;;;;;;;;;1441059;41;20423;-84
2021/06/18 05:35:55;;;;;;;0.10;0.10;;;;;;;;;;1446674;41;20406;-83
2021/06/18 05:37:03;;;;;;;0.20;0.20;;;;;;;;;;1442768;41;20469;-84
2021/06/18 05:38:05;;;;;;;3.88;0.63;;;;;;;;;;1440215;41;20817;-84
2021/06/18 05:39:07;;;;;;;0.08;0.08;;;;;;;;;;1440096;41;20430;-82
2021/06/18 05:40:11;;;;;;;0.57;0.57;;;;;;;;;;1439463;41;20802;-84
2021/06/18 05:41:13;;;;;;;1.20;0.50;;;;;;;;;;1439362;41;20467;-82
2021/06/18 05:42:15;;;;;;;0.00;0.00;;;;;;;;;;1437420;41;20815;-85
2021/06/18 05:43:18;;;;;;;0.50;0.50;;;;;;;;;;1440766;41;20430;-84
2021/06/18 05:44:21;;;;;;;0.10;0.10;;;;;;;;;;1430190;41;20449;-83
2021/06/18 05:45:23;;;;;;;0.10;0.10;;;;;;;;;;1433672;41;20439;-83
2021/06/18 05:46:25;;;;;;;0.90;0.63;;;;;;;;;;1437889;41;20494;-83
2021/06/18 05:47:28;;;;;;;0.60;0.30;;;;;;;;;;1440236;41;20431;-82
2021/06/18 05:48:31;;;;;;;0.52;0.52;;;;;;;;;;1437158;41;20417;-82
2021/06/18 05:49:33;;;;;;;0.43;0.43;;;;;;;;;;1440568;41;20422;-83
2021/06/18 05:50:35;;;;;;;0.30;0.30;;;;;;;;;;1444247;41;20621;-85
2021/06/18 05:51:36;;;;;;;0.68;0.68;;;;;;;;;;1438558;41;20434;-82
2021/06/18 05:52:38;;;;;;;1.90;0.80;;;;;;;;;;1438475;41;20430;-87
2021/06/18 05:53:40;;;;;;;0.22;0.22;;;;;;;;;;1437919;41;20442;-83
2021/06/18 05:54:41;;;;;;;0.00;0.00;;;;;;;;;;1438182;41;20808;-84
2021/06/18 05:55:44;;;;;;;1.65;0.68;;;;;;;;;;1440019;41;20525;-84
2021/06/18 05:56:46;;;;;;;15.30;1.10;;;;;;;;;;1426530;41;20516;-81
2021/06/18 05:57:51;;;;;;;0.10;0.10;;;;;;;;;;1429393;41;20501;-85
2021/06/18 05:58:53;;;;;;;0.10;0.10;;;;;;;;;;1436774;41;20828;-83
2021/06/18 05:59:55;;;;;;;0.10;0.10;;;;;;;;;;1438448;41;20535;-83
2021/06/18 06:00:57;;;;;;;1.10;0.90;;;;;;;;;;1438356;41;20500;-83
2021/06/18 06:01:58;;;;;;;0.65;0.40;;;;;;;;;;1437753;41;20417;-82
2021/06/18 06:03:00;;;;;;;0.90;0.90;;;;;;;;;;1434294;41;20427;-83
2021/06/18 06:04:11;;;;;;;0.63;0.63;;;;;;;;;;1431049;41;20443;-82
2021/06/18 06:05:13;;;;;;;0.50;0.40;;;;;;;;;;1431681;41;20479;-83
2021/06/18 06:06:15;;;;;;;1.08;0.63;;;;;;;;;;1434358;41;20826;-82
2021/06/18 06:07:16;;;;;;;1.00;0.90;;;;;;;;;;1434524;41;20455;-85
2021/06/18 06:08:19;;;;;;;1.50;1.38;;;;;;;;;;1437525;41;20471;-84
2021/06/18 06:09:21;;;;;;;1.10;0.50;;;;;;;;;;1442580;41;20427;-83
2021/06/18 06:10:23;;;;;;;0.40;0.40;;;;;;;;;;1437129;41;20436;-84
2021/06/18 06:11:26;;;;;;;0.30;0.30;;;;;;;;;;1438861;41;20428;-83
2021/06/18 06:12:28;;;;;;;1.15;1.15;;;;;;;;;;1443354;41;20442;-85
2021/06/18 06:13:30;;;;;;;0.22;0.22;;;;;;;;;;1442760;41;20607;-85
2021/06/18 06:14:32;;;;;;;1.60;0.40;;;;;;;;;;1439270;41;20428;-83
2021/06/18 06:15:34;;;;;;;0.60;0.60;;;;;;;;;;1441096;41;20416;-84
2021/06/18 06:16:36;;;;;;;0.10;0.10;;;;;;;;;;1441836;41;20471;-85
2021/06/18 06:17:38;;;;;;;0.20;0.20;;;;;;;;;;1441389;41;20412;-84